Time;durP1;ratioP1;P1;durP2;ratioP2;P2;SDS_P1;SDS_P2;PMS_P1;PMS_P2;Temp;Humidity;BMP_temperature;BMP_pressure;BME280_temperature;BME280_humidity;BME280_pressure;Samples;Min_cycle;Max_cycle;Signal;HPM_P1;HPM_P2
2024/01/04 00:00:17;;;;;;;7.78;3.72;;;1.00;99.90;;;;;;4973441;28;20023;-76
2024/01/04 00:02:45;;;;;;;6.35;3.42;;;1.10;99.90;;;;;;4975094;28;20030;-76
2024/01/04 00:05:10;;;;;;;7.50;3.38;;;1.10;99.90;;;;;;4974655;28;20022;-76
2024/01/04 00:07:37;;;;;;;4.53;2.97;;;1.10;99.90;;;;;;4973358;28;20035;-77
2024/01/04 00:10:04;;;;;;;9.38;4.38;;;1.20;99.90;;;;;;4974577;28;20047;-76
2024/01/04 00:12:30;;;;;;;8.27;4.03;;;1.20;99.90;;;;;;4974672;28;20042;-76
2024/01/04 00:14:59;;;;;;;7.03;4.25;;;1.10;99.90;;;;;;4973812;28;20055;-76
2024/01/04 00:17:25;;;;;;;9.27;4.55;;;1.10;99.90;;;;;;4974148;28;20029;-76
2024/01/04 00:19:50;;;;;;;10.88;4.72;;;1.00;99.90;;;;;;4978134;28;20027;-76
2024/01/04 00:22:16;;;;;;;6.30;4.05;;;1.10;99.90;;;;;;4981501;28;20034;-75
2024/01/04 00:24:43;;;;;;;6.10;4.05;;;1.00;99.90;;;;;;4982189;28;20026;-75
2024/01/04 00:27:08;;;;;;;4.25;2.38;;;0.80;99.90;;;;;;4977908;28;20126;-76
2024/01/04 00:29:34;;;;;;;4.53;3.08;;;0.90;99.90;;;;;;4973986;28;20166;-76
2024/01/04 00:31:59;;;;;;;3.53;2.50;;;0.90;99.90;;;;;;4973038;28;20549;-76
2024/01/04 00:34:25;;;;;;;5.93;2.92;;;0.80;99.90;;;;;;4974066;28;20023;-76
2024/01/04 00:36:51;;;;;;;4.32;2.50;;;0.80;99.90;;;;;;4974302;28;20062;-76
2024/01/04 00:39:17;;;;;;;4.75;2.88;;;0.80;99.90;;;;;;4972747;28;20026;-77
2024/01/04 00:41:43;;;;;;;3.53;2.85;;;0.80;99.90;;;;;;4973972;28;20054;-76
2024/01/04 00:44:09;;;;;;;5.53;3.15;;;0.80;99.90;;;;;;4974279;28;20512;-76
2024/01/04 00:46:34;;;;;;;5.38;3.13;;;0.60;99.90;;;;;;4976897;28;20099;-76
2024/01/04 00:49:00;;;;;;;3.83;2.55;;;0.70;99.90;;;;;;4975096;28;20058;-76
2024/01/04 00:51:25;;;;;;;5.10;3.03;;;0.60;99.90;;;;;;4973541;28;20042;-76
2024/01/04 00:53:51;;;;;;;4.60;2.78;;;0.60;99.90;;;;;;4974236;28;20035;-76
2024/01/04 00:56:17;;;;;;;7.88;3.53;;;0.60;99.90;;;;;;4973961;28;20077;-76
2024/01/04 00:58:42;;;;;;;7.22;2.97;;;0.60;99.90;;;;;;4972269;28;20030;-76
2024/01/04 01:01:08;;;;;;;7.05;3.47;;;0.40;99.90;;;;;;4973783;28;20085;-76
2024/01/04 01:03:34;;;;;;;6.07;2.97;;;0.40;99.90;;;;;;4972360;28;20039;-76
2024/01/04 01:05:59;;;;;;;7.85;3.13;;;0.50;99.90;;;;;;4972277;28;20168;-76
2024/01/04 01:08:25;;;;;;;4.63;2.50;;;0.50;99.90;;;;;;4973145;28;20035;-76
2024/01/04 01:10:51;;;;;;;6.35;2.88;;;0.50;99.90;;;;;;4973631;28;20456;-76
2024/01/04 01:13:20;;;;;;;5.05;3.95;;;0.40;99.90;;;;;;4973469;28;20019;-76
2024/01/04 01:15:49;;;;;;;3.80;2.78;;;0.30;99.90;;;;;;4972385;28;20448;-76
2024/01/04 01:18:14;;;;;;;12.00;3.22;;;0.40;99.90;;;;;;4971978;28;20034;-76
2024/01/04 01:20:40;;;;;;;5.40;3.45;;;0.40;99.90;;;;;;4973602;28;20037;-76
2024/01/04 01:23:06;;;;;;;4.40;2.65;;;0.50;99.90;;;;;;4973423;28;20054;-76
2024/01/04 01:25:33;;;;;;;3.83;2.92;;;0.60;99.90;;;;;;4973307;28;20023;-76
2024/01/04 01:27:58;;;;;;;4.35;3.08;;;0.50;99.90;;;;;;4972931;28;20541;-76
2024/01/04 01:30:24;;;;;;;4.05;2.78;;;0.70;99.90;;;;;;4972215;28;20121;-77
2024/01/04 01:32:49;;;;;;;4.07;3.17;;;0.80;99.90;;;;;;4972126;28;20022;-76
2024/01/04 01:35:15;;;;;;;4.30;3.05;;;0.60;99.90;;;;;;4973313;28;20501;-76
2024/01/04 01:37:41;;;;;;;5.13;2.90;;;0.60;99.90;;;;;;4973192;28;20023;-76
2024/01/04 01:40:07;;;;;;;5.88;2.70;;;0.40;99.90;;;;;;4973526;28;20378;-75
2024/01/04 01:42:33;;;;;;;6.15;2.63;;;0.70;99.90;;;;;;4973316;28;20027;-76
2024/01/04 01:45:00;;;;;;;5.28;3.63;;;0.80;99.90;;;;;;4973257;28;20034;-76
2024/01/04 01:47:26;;;;;;;8.27;3.38;;;0.80;99.90;;;;;;4971673;28;20110;-76
2024/01/04 01:49:53;;;;;;;5.43;2.40;;;0.80;99.90;;;;;;4973216;28;20054;-77
2024/01/04 01:52:19;;;;;;;6.00;3.10;;;0.70;99.90;;;;;;4972061;28;20045;-77
2024/01/04 01:54:47;;;;;;;6.13;2.90;;;0.60;99.90;;;;;;4973175;28;20081;-76
2024/01/04 01:57:14;;;;;;;4.57;2.40;;;0.60;99.90;;;;;;4976912;28;20033;-76
2024/01/04 01:59:39;;;;;;;6.60;2.80;;;0.60;99.90;;;;;;4976831;28;20469;-76
2024/01/04 02:02:06;;;;;;;6.45;2.70;;;1.40;99.90;;;;;;4977273;28;20113;-76
2024/01/04 02:04:32;;;;;;;7.07;3.30;;;0.60;99.90;;;;;;4976989;28;20058;-76
2024/01/04 02:06:58;;;;;;;5.60;3.28;;;0.60;99.90;;;;;;4976774;28;20062;-76
2024/01/04 02:09:23;;;;;;;4.40;3.03;;;1.00;99.90;;;;;;5002038;23;20475;-76
2024/01/04 02:11:49;;;;;;;5.97;2.80;;;0.50;99.90;;;;;;4989020;28;20030;-76
2024/01/04 02:14:14;;;;;;;6.10;3.35;;;1.70;99.90;;;;;;4987623;28;20481;-76
2024/01/04 02:16:41;;;;;;;5.60;3.28;;;0.50;99.90;;;;;;4990232;28;20030;-76
2024/01/04 02:19:11;;;;;;;6.03;3.63;;;0.60;99.90;;;;;;4980241;28;20051;-76
2024/01/04 02:21:40;;;;;;;4.20;2.97;;;0.40;99.90;;;;;;4970956;29;20028;-76
2024/01/04 02:24:06;;;;;;;5.53;2.65;;;0.40;99.90;;;;;;4971226;29;20019;-76
2024/01/04 02:26:31;;;;;;;5.85;3.13;;;0.70;99.90;;;;;;4969887;28;20047;-77
2024/01/04 02:28:58;;;;;;;4.10;2.83;;;0.80;99.90;;;;;;4970509;28;20046;-76
2024/01/04 02:31:24;;;;;;;4.47;2.70;;;0.50;99.90;;;;;;4970693;29;20031;-76
2024/01/04 02:33:49;;;;;;;5.65;3.00;;;0.30;99.90;;;;;;4971014;29;20020;-76
2024/01/04 02:36:15;;;;;;;3.83;2.75;;;0.40;99.90;;;;;;4968977;29;20020;-76
2024/01/04 02:38:40;;;;;;;3.35;2.67;;;0.40;99.90;;;;;;4969980;29;20038;-76
2024/01/04 02:41:06;;;;;;;5.63;3.45;;;0.40;99.90;;;;;;4970996;28;20031;-76
2024/01/04 02:43:31;;;;;;;4.38;2.50;;;0.40;99.90;;;;;;4971407;28;20027;-76
2024/01/04 02:45:57;;;;;;;8.60;3.40;;;0.30;99.90;;;;;;4969284;28;20046;-76
2024/01/04 02:48:23;;;;;;;4.22;3.25;;;0.40;99.90;;;;;;4960765;28;20035;-76
2024/01/04 02:50:48;;;;;;;3.53;2.80;;;0.30;99.90;;;;;;4956710;28;20023;-76
2024/01/04 02:53:14;;;;;;;6.43;3.58;;;1.10;99.90;;;;;;4955534;28;20026;-76
2024/01/04 02:55:40;;;;;;;7.53;3.50;;;0.30;99.90;;;;;;4956438;29;20553;-76
2024/01/04 02:58:05;;;;;;;3.50;3.00;;;0.40;99.90;;;;;;4956110;28;20031;-76
2024/01/04 03:00:31;;;;;;;5.90;3.38;;;0.60;99.90;;;;;;4956457;29;20050;-76
2024/01/04 03:02:57;;;;;;;9.85;2.85;;;0.50;99.90;;;;;;4955171;28;20389;-76
2024/01/04 03:05:22;;;;;;;8.07;2.50;;;0.50;99.90;;;;;;4971389;28;20106;-76
2024/01/04 03:07:48;;;;;;;5.03;3.00;;;0.40;99.90;;;;;;4955605;28;20030;-77
2024/01/04 03:10:14;;;;;;;2.75;1.98;;;0.40;99.90;;;;;;4954749;28;20035;-76
2024/01/04 03:12:40;;;;;;;6.18;3.05;;;0.50;99.90;;;;;;4954984;28;20035;-76
2024/01/04 03:15:07;;;;;;;4.50;2.75;;;0.30;99.90;;;;;;4954913;28;20712;-76
2024/01/04 03:17:32;;;;;;;4.38;2.70;;;0.50;99.90;;;;;;4954574;28;20056;-76
2024/01/04 03:19:58;;;;;;;3.35;2.25;;;0.40;99.90;;;;;;4954873;28;20066;-76
2024/01/04 03:22:23;;;;;;;3.28;2.10;;;0.40;99.90;;;;;;4955967;29;20513;-76
2024/01/04 03:24:49;;;;;;;4.95;2.40;;;0.40;99.90;;;;;;4954710;28;20035;-76
2024/01/04 03:27:15;;;;;;;3.35;2.33;;;0.50;99.90;;;;;;4963389;28;20026;-77
2024/01/04 03:29:40;;;;;;;5.68;2.92;;;0.30;99.90;;;;;;4974939;28;20043;-76
2024/01/04 03:32:06;;;;;;;4.30;2.45;;;0.30;99.90;;;;;;4975094;28;20031;-77
2024/01/04 03:34:33;;;;;;;5.13;2.78;;;0.70;99.90;;;;;;4975196;28;20446;-76
2024/01/04 03:36:58;;;;;;;6.30;3.65;;;0.20;99.90;;;;;;4973737;28;20026;-76
2024/01/04 03:39:24;;;;;;;4.68;2.88;;;0.40;99.90;;;;;;4973340;28;20115;-75
2024/01/04 03:41:50;;;;;;;7.88;3.67;;;0.50;99.90;;;;;;4973789;28;20026;-76
2024/01/04 03:44:15;;;;;;;5.38;2.88;;;0.60;99.90;;;;;;4973665;28;20031;-76
2024/01/04 03:46:41;;;;;;;3.35;2.05;;;0.20;99.90;;;;;;4974832;28;20039;-76
2024/01/04 03:49:06;;;;;;;4.30;3.45;;;0.40;99.90;;;;;;4973260;28;20113;-76
2024/01/04 03:51:32;;;;;;;3.78;2.38;;;0.20;99.90;;;;;;4989776;28;20069;-76
2024/01/04 03:53:58;;;;;;;6.10;2.88;;;0.10;99.90;;;;;;4973538;28;20503;-76
2024/01/04 03:56:24;;;;;;;8.02;3.13;;;0.10;99.90;;;;;;4973525;28;20027;-76
2024/01/04 03:58:49;;;;;;;3.38;2.58;;;0.00;99.90;;;;;;4973243;28;20559;-76
2024/01/04 04:01:15;;;;;;;3.00;2.72;;;0.10;99.90;;;;;;4974739;28;20026;-76
2024/01/04 04:03:41;;;;;;;5.78;3.65;;;0.00;99.90;;;;;;4989511;28;20069;-75
2024/01/04 04:06:07;;;;;;;5.80;2.88;;;0.40;99.90;;;;;;4974700;28;20019;-75
2024/01/04 04:08:33;;;;;;;6.97;3.28;;;0.10;99.90;;;;;;4972613;28;20026;-76
2024/01/04 04:10:59;;;;;;;4.45;2.65;;;-0.10;99.90;;;;;;4974566;28;20027;-75
2024/01/04 04:13:25;;;;;;;4.60;2.70;;;-0.10;99.90;;;;;;4974643;28;20027;-75
2024/01/04 04:15:51;;;;;;;11.65;3.72;;;-0.10;99.90;;;;;;4974684;28;20022;-75
2024/01/04 04:18:16;;;;;;;5.13;3.20;;;-0.10;99.90;;;;;;4973125;28;20103;-75
2024/01/04 04:20:42;;;;;;;5.10;2.42;;;0.00;99.90;;;;;;4974220;28;20450;-75
2024/01/04 04:23:08;;;;;;;7.82;3.40;;;-0.10;99.90;;;;;;4989251;28;20023;-75
2024/01/04 04:25:36;;;;;;;4.20;2.15;;;-0.10;99.90;;;;;;4989198;28;20029;-75
2024/01/04 04:28:02;;;;;;;5.88;3.00;;;-0.10;99.90;;;;;;4988976;28;20023;-75
2024/01/04 04:30:29;;;;;;;5.97;2.53;;;0.00;99.90;;;;;;4972811;28;20033;-76
2024/01/04 04:32:55;;;;;;;4.10;2.92;;;-0.10;99.90;;;;;;4974144;28;20023;-76
2024/01/04 04:35:21;;;;;;;4.32;2.58;;;-0.10;99.90;;;;;;4973944;28;20069;-76
2024/01/04 04:37:47;;;;;;;3.70;2.72;;;-0.10;99.90;;;;;;4972459;28;20023;-76
2024/01/04 04:40:13;;;;;;;5.05;2.17;;;-0.10;99.90;;;;;;4973947;28;20550;-76
2024/01/04 04:42:38;;;;;;;8.88;2.28;;;0.00;99.90;;;;;;4972879;28;20521;-76
2024/01/04 04:45:05;;;;;;;4.55;2.13;;;-0.10;99.90;;;;;;4973795;28;20027;-75
2024/01/04 04:47:30;;;;;;;3.33;1.92;;;0.00;99.90;;;;;;4973494;28;20409;-76
2024/01/04 04:49:56;;;;;;;4.78;2.63;;;-0.10;99.90;;;;;;4988729;28;20027;-75
2024/01/04 04:52:22;;;;;;;3.40;2.70;;;0.00;99.90;;;;;;4972521;28;20083;-76
2024/01/04 04:54:48;;;;;;;4.28;2.72;;;-0.10;99.90;;;;;;4972421;28;20515;-76
2024/01/04 04:57:13;;;;;;;4.57;2.00;;;0.00;99.90;;;;;;4973610;28;20027;-77
2024/01/04 04:59:39;;;;;;;4.28;2.83;;;0.00;99.90;;;;;;4972171;28;20095;-76
2024/01/04 05:02:04;;;;;;;4.18;2.28;;;-0.10;99.90;;;;;;4972307;28;20023;-75
2024/01/04 05:04:30;;;;;;;3.85;2.00;;;-0.10;99.90;;;;;;4972406;28;20121;-76
2024/01/04 05:06:56;;;;;;;3.33;2.30;;;0.00;99.90;;;;;;4973510;28;20108;-76
2024/01/04 05:09:22;;;;;;;3.08;1.73;;;0.00;99.90;;;;;;4974086;28;20038;-76
2024/01/04 05:11:47;;;;;;;3.53;1.90;;;0.10;99.90;;;;;;4976168;28;20025;-76
2024/01/04 05:14:13;;;;;;;3.58;1.77;;;-0.20;99.90;;;;;;4991194;28;20023;-76
2024/01/04 05:16:38;;;;;;;4.68;2.42;;;0.20;99.90;;;;;;4975682;28;20041;-77
2024/01/04 05:19:09;;;;;;;2.70;2.28;;;0.20;99.90;;;;;;4993002;28;20030;-77
2024/01/04 05:21:35;;;;;;;6.70;4.07;;;0.20;99.90;;;;;;4982062;28;20026;-76
2024/01/04 05:24:00;;;;;;;5.13;2.80;;;0.20;99.90;;;;;;4985177;28;20038;-76
2024/01/04 05:26:26;;;;;;;3.50;2.20;;;0.10;99.90;;;;;;4984248;28;20031;-78
2024/01/04 05:28:52;;;;;;;4.22;2.40;;;0.10;99.90;;;;;;4982181;28;20051;-76
2024/01/04 05:31:20;;;;;;;2.85;2.00;;;0.10;99.90;;;;;;4977087;28;20116;-76
2024/01/04 05:33:48;;;;;;;4.50;3.05;;;0.10;99.90;;;;;;4972233;28;20023;-76
2024/01/04 05:36:14;;;;;;;4.45;3.40;;;0.00;99.90;;;;;;4973322;28;20098;-77
2024/01/04 05:38:39;;;;;;;15.20;5.88;;;0.00;99.90;;;;;;4971635;28;20517;-76
2024/01/04 05:41:05;;;;;;;13.70;6.30;;;-0.10;99.90;;;;;;4969292;28;20039;-76
2024/01/04 05:43:33;;;;;;;10.63;4.40;;;-0.30;99.90;;;;;;4964446;29;20055;-78
2024/01/04 05:46:01;;;;;;;24.52;9.27;;;-0.10;99.90;;;;;;4958255;28;20589;-76
2024/01/04 05:48:27;;;;;;;12.23;5.18;;;0.00;99.90;;;;;;4952866;28;20027;-75
2024/01/04 05:50:53;;;;;;;4.43;3.40;;;-0.10;99.90;;;;;;4968446;28;20046;-75
2024/01/04 05:53:18;;;;;;;6.28;4.13;;;0.20;99.90;;;;;;4953496;28;20102;-76
2024/01/04 05:55:44;;;;;;;5.40;3.75;;;3.60;99.90;;;;;;4953653;29;20394;-75
2024/01/04 05:58:10;;;;;;;10.35;4.43;;;3.00;99.90;;;;;;4968256;28;20030;-75
2024/01/04 06:00:35;;;;;;;6.00;3.47;;;1.10;99.90;;;;;;4968584;28;20019;-76
2024/01/04 06:03:01;;;;;;;6.45;3.22;;;0.90;99.90;;;;;;4968590;28;20397;-76
2024/01/04 06:05:27;;;;;;;7.55;3.13;;;0.30;99.90;;;;;;4968763;28;20028;-76
2024/01/04 06:07:52;;;;;;;4.57;2.70;;;0.30;99.90;;;;;;4952391;28;20015;-76
2024/01/04 06:10:18;;;;;;;4.88;2.75;;;0.10;99.90;;;;;;4953803;28;20058;-75
2024/01/04 06:12:44;;;;;;;9.18;2.88;;;0.00;99.90;;;;;;4969807;28;20034;-76
2024/01/04 06:15:10;;;;;;;4.90;2.75;;;-0.10;99.90;;;;;;4952372;28;20031;-76
2024/01/04 06:17:36;;;;;;;7.43;3.13;;;-0.10;99.90;;;;;;4953449;29;20426;-76
2024/01/04 06:20:02;;;;;;;7.82;3.80;;;-0.10;99.90;;;;;;4953552;28;20074;-75
2024/01/04 06:22:28;;;;;;;4.82;3.20;;;-0.20;99.90;;;;;;4953369;28;20461;-75
2024/01/04 06:24:53;;;;;;;3.67;3.15;;;-0.30;99.90;;;;;;4953660;28;20058;-76
2024/01/04 06:27:19;;;;;;;3.90;2.50;;;-0.50;99.90;;;;;;4953409;28;20110;-77
2024/01/04 06:29:45;;;;;;;5.45;2.20;;;-0.50;99.90;;;;;;4969751;28;20023;-75
2024/01/04 06:32:10;;;;;;;6.18;3.47;;;-0.20;99.90;;;;;;4954142;28;20592;-76
2024/01/04 06:34:36;;;;;;;6.40;3.33;;;-0.20;99.90;;;;;;4953612;29;20027;-76
2024/01/04 06:37:02;;;;;;;3.70;2.40;;;1.30;99.90;;;;;;4953610;28;20078;-76
2024/01/04 06:39:28;;;;;;;4.05;2.40;;;-0.10;99.90;;;;;;4953399;28;20059;-76
2024/01/04 06:41:54;;;;;;;6.50;3.58;;;1.30;99.90;;;;;;4954986;28;20033;-77
2024/01/04 06:44:20;;;;;;;5.85;3.22;;;1.00;99.90;;;;;;4962114;28;20098;-77
2024/01/04 06:46:45;;;;;;;5.03;3.53;;;2.90;99.90;;;;;;4947399;29;20457;-77
2024/01/04 06:49:11;;;;;;;3.88;2.80;;;2.00;99.90;;;;;;4957677;28;20015;-76
2024/01/04 06:51:37;;;;;;;9.35;3.53;;;1.40;99.90;;;;;;4955964;29;20062;-77
2024/01/04 06:54:02;;;;;;;7.25;2.70;;;1.00;99.90;;;;;;4970607;28;20478;-76
2024/01/04 06:56:28;;;;;;;5.03;3.45;;;0.80;99.90;;;;;;4954283;29;20019;-77
2024/01/04 06:58:55;;;;;;;5.78;2.95;;;0.50;99.90;;;;;;4970504;28;20027;-76
2024/01/04 07:01:21;;;;;;;4.75;2.28;;;0.20;99.90;;;;;;4955923;29;20151;-76
2024/01/04 07:03:46;;;;;;;9.57;3.20;;;0.10;99.90;;;;;;4955320;29;20122;-76
2024/01/04 07:06:13;;;;;;;6.55;2.90;;;0.00;99.90;;;;;;4971285;28;20114;-76
2024/01/04 07:08:39;;;;;;;7.70;3.90;;;-0.10;99.90;;;;;;4956090;28;20034;-76
2024/01/04 07:11:07;;;;;;;5.80;3.58;;;0.00;99.90;;;;;;4971842;28;20023;-76
2024/01/04 07:13:34;;;;;;;7.97;3.47;;;0.00;99.90;;;;;;4955412;29;20110;-76
2024/01/04 07:16:04;;;;;;;10.75;4.85;;;0.00;99.90;;;;;;4956551;28;20498;-76
2024/01/04 07:18:29;;;;;;;8.23;4.38;;;-0.10;99.90;;;;;;4955619;28;20033;-76
2024/01/04 07:20:55;;;;;;;6.45;3.45;;;-0.10;99.90;;;;;;4956166;29;20106;-76
2024/01/04 07:23:21;;;;;;;10.07;3.20;;;-0.10;99.90;;;;;;4956162;29;20027;-77
2024/01/04 07:25:47;;;;;;;6.13;3.30;;;0.00;99.90;;;;;;4971097;28;20027;-76
2024/01/04 07:28:12;;;;;;;3.00;2.25;;;-0.10;99.90;;;;;;4955697;28;20023;-76
2024/01/04 07:30:38;;;;;;;6.03;2.72;;;0.10;99.90;;;;;;4956101;29;20019;-77
2024/01/04 07:33:04;;;;;;;9.18;3.65;;;-0.10;99.90;;;;;;4954753;29;20489;-76
2024/01/04 07:35:30;;;;;;;6.40;3.20;;;0.10;99.90;;;;;;4955765;28;20019;-77
2024/01/04 07:37:57;;;;;;;7.32;2.70;;;0.00;99.90;;;;;;4956205;29;20496;-75
2024/01/04 07:40:22;;;;;;;8.52;4.03;;;0.10;99.90;;;;;;4954579;28;20122;-76
2024/01/04 07:42:48;;;;;;;9.15;4.03;;;0.00;99.90;;;;;;4956235;29;20107;-76
2024/01/04 07:45:13;;;;;;;3.78;2.47;;;0.00;99.90;;;;;;4955441;29;20062;-76
2024/01/04 07:47:39;;;;;;;4.65;2.35;;;0.20;99.90;;;;;;4955291;29;20386;-77
2024/01/04 07:50:06;;;;;;;7.50;2.55;;;0.20;99.90;;;;;;4955386;28;20034;-77
2024/01/04 07:52:32;;;;;;;6.32;2.95;;;0.30;99.90;;;;;;4955513;28;20027;-76
2024/01/04 07:54:58;;;;;;;4.65;2.70;;;0.30;99.90;;;;;;4973396;28;20055;-77
2024/01/04 07:57:23;;;;;;;5.28;3.25;;;0.40;99.90;;;;;;4982160;28;20020;-77
2024/01/04 07:59:49;;;;;;;6.88;4.15;;;0.50;99.90;;;;;;4964681;28;20036;-76
2024/01/04 08:02:16;;;;;;;7.22;3.75;;;0.60;99.90;;;;;;4980151;28;20038;-77
2024/01/04 08:04:41;;;;;;;6.88;3.90;;;0.70;99.90;;;;;;4964876;29;20466;-76
2024/01/04 08:07:07;;;;;;;6.60;3.75;;;0.70;99.90;;;;;;4959078;29;20031;-76
2024/01/04 08:09:33;;;;;;;6.50;3.55;;;0.80;99.90;;;;;;4973524;23;20047;-75
2024/01/04 08:11:58;;;;;;;10.35;4.00;;;0.80;99.90;;;;;;4953792;29;20034;-75
2024/01/04 08:14:24;;;;;;;5.05;2.70;;;0.90;99.90;;;;;;4954819;29;20055;-75
2024/01/04 08:16:49;;;;;;;7.28;3.78;;;1.00;99.90;;;;;;4954728;29;20023;-75
2024/01/04 08:19:15;;;;;;;8.65;3.60;;;1.10;99.90;;;;;;4946432;29;20066;-74
2024/01/04 08:21:41;;;;;;;7.70;3.22;;;1.10;99.90;;;;;;4935436;29;20038;-74
2024/01/04 08:24:07;;;;;;;9.60;2.83;;;1.10;99.90;;;;;;4935330;29;20039;-74
2024/01/04 08:26:32;;;;;;;7.25;3.40;;;1.20;99.90;;;;;;4933937;29;20032;-74
2024/01/04 08:28:58;;;;;;;6.65;3.65;;;1.30;99.90;;;;;;4934870;29;20036;-74
2024/01/04 08:31:23;;;;;;;5.35;3.35;;;1.40;99.90;;;;;;4934072;29;20028;-74
2024/01/04 08:33:49;;;;;;;5.75;3.28;;;1.50;99.90;;;;;;4935468;29;20390;-74
2024/01/04 08:36:15;;;;;;;6.47;3.33;;;1.60;99.90;;;;;;4934119;29;20130;-75
2024/01/04 08:38:40;;;;;;;5.40;3.63;;;1.60;99.90;;;;;;4935059;29;20035;-75
2024/01/04 08:41:06;;;;;;;6.55;3.72;;;1.60;99.90;;;;;;4935482;29;20035;-74
2024/01/04 08:43:31;;;;;;;5.88;3.20;;;1.70;99.90;;;;;;4935066;29;20063;-74
2024/01/04 08:45:57;;;;;;;7.40;3.78;;;1.80;99.90;;;;;;4935340;29;20051;-75
2024/01/04 08:48:23;;;;;;;7.05;3.72;;;1.90;99.90;;;;;;4935830;29;20034;-75
2024/01/04 08:50:48;;;;;;;8.82;5.45;;;2.00;99.90;;;;;;4935399;29;20082;-75
2024/01/04 08:53:20;;;;;;;11.02;5.68;;;2.20;99.90;;;;;;4935299;29;20087;-74
2024/01/04 08:55:46;;;;;;;9.45;4.85;;;2.20;99.90;;;;;;4935170;29;20110;-74
2024/01/04 08:58:11;;;;;;;8.60;5.25;;;2.40;99.90;;;;;;4934925;29;20062;-75
2024/01/04 09:00:37;;;;;;;7.75;4.53;;;2.40;99.90;;;;;;4935005;29;20409;-74
2024/01/04 09:03:03;;;;;;;7.82;4.82;;;2.50;99.90;;;;;;4933807;29;20463;-74
2024/01/04 09:05:30;;;;;;;9.05;5.25;;;2.60;99.90;;;;;;4934510;29;20055;-74
2024/01/04 09:07:55;;;;;;;9.25;4.50;;;2.70;99.90;;;;;;4934740;29;20019;-74
2024/01/04 09:10:21;;;;;;;6.88;4.13;;;2.80;99.90;;;;;;4934770;29;20597;-75
2024/01/04 09:12:47;;;;;;;4.13;3.65;;;2.90;99.90;;;;;;4934974;29;20027;-75
2024/01/04 09:15:13;;;;;;;6.55;3.83;;;3.00;99.90;;;;;;4934710;29;20082;-75
2024/01/04 09:17:40;;;;;;;5.32;3.65;;;3.00;99.90;;;;;;4933445;29;20028;-75
2024/01/04 09:20:06;;;;;;;6.65;4.03;;;3.20;99.90;;;;;;4934798;29;20036;-74
2024/01/04 09:22:32;;;;;;;7.93;3.60;;;3.30;99.90;;;;;;4934632;29;20399;-74
2024/01/04 09:24:58;;;;;;;6.32;3.88;;;3.30;99.90;;;;;;4934748;29;20031;-75
2024/01/04 09:27:23;;;;;;;11.80;5.85;;;3.50;99.90;;;;;;4934502;29;20032;-75
2024/01/04 09:29:50;;;;;;;10.57;6.57;;;3.70;99.90;;;;;;4934476;29;20028;-74
2024/01/04 09:32:16;;;;;;;9.60;6.15;;;3.70;99.90;;;;;;4936040;29;20024;-74
2024/01/04 09:34:41;;;;;;;9.90;5.05;;;3.70;99.90;;;;;;4933484;29;20082;-74
2024/01/04 09:37:07;;;;;;;6.72;5.18;;;3.90;99.90;;;;;;4935950;29;20020;-74
2024/01/04 09:39:32;;;;;;;10.50;6.10;;;4.10;99.90;;;;;;4934354;29;20036;-74
2024/01/04 09:41:59;;;;;;;8.27;5.43;;;4.20;99.90;;;;;;4934531;29;20082;-74
2024/01/04 09:44:25;;;;;;;12.15;7.55;;;4.40;99.90;;;;;;4934458;29;20032;-74
2024/01/04 09:46:56;;;;;;;33.00;16.67;;;4.50;99.90;;;;;;4934491;29;20031;-74
2024/01/04 09:49:22;;;;;;;21.40;13.07;;;4.70;99.90;;;;;;4934269;29;20034;-74
2024/01/04 09:51:48;;;;;;;17.88;10.23;;;4.90;99.90;;;;;;4934463;29;20414;-74
2024/01/04 09:54:15;;;;;;;21.40;10.43;;;5.00;99.90;;;;;;4934450;29;20032;-75
2024/01/04 09:56:43;;;;;;;14.63;9.02;;;5.20;99.90;;;;;;4933201;29;20024;-74
2024/01/04 09:59:09;;;;;;;10.70;5.22;;;5.40;99.90;;;;;;4934132;29;20032;-74
2024/01/04 10:01:36;;;;;;;4.63;2.75;;;5.70;99.90;;;;;;4934393;29;20028;-74
2024/01/04 10:04:08;;;;;;;5.05;2.22;;;6.00;99.90;;;;;;4934485;29;20038;-75
2024/01/04 10:06:37;;;;;;;2.72;1.35;;;6.30;99.90;;;;;;4932991;29;20115;-75
2024/01/04 10:09:22;;;;;;;5.15;2.13;;;6.50;99.90;;;;;;4932493;29;20035;-74
2024/01/04 10:12:11;;;;;;;3.78;1.17;;;6.80;99.90;;;;;;4934344;29;20111;-74
2024/01/04 10:14:37;;;;;;;2.60;2.40;;;7.30;99.90;;;;;;4934298;29;20058;-76
2024/01/04 10:17:03;;;;;;;2.88;1.95;;;7.70;99.90;;;;;;4935709;29;20507;-74
2024/01/04 10:19:33;;;;;;;1.95;1.50;;;8.10;99.90;;;;;;4937490;29;20060;-75
2024/01/04 10:22:01;;;;;;;3.25;2.10;;;8.30;99.90;;;;;;4938425;29;20046;-77
2024/01/04 10:24:29;;;;;;;2.15;1.75;;;8.60;98.80;;;;;;4938208;29;20036;-74
2024/01/04 10:27:00;;;;;;;5.95;2.55;;;8.90;97.30;;;;;;4937594;29;20107;-73
2024/01/04 10:29:27;;;;;;;3.65;1.88;;;9.20;96.70;;;;;;4936119;29;20032;-73
2024/01/04 10:32:05;;;;;;;3.28;3.05;;;9.30;95.80;;;;;;4937677;29;20501;-73
2024/01/04 10:34:33;;;;;;;1.75;1.15;;;9.50;94.60;;;;;;4936264;29;20023;-73
2024/01/04 10:37:09;;;;;;;1.63;1.10;;;9.60;94.10;;;;;;4937587;29;20020;-73
2024/01/04 10:39:36;;;;;;;3.13;2.08;;;9.80;94.10;;;;;;4936064;29;20102;-73
2024/01/04 10:42:02;;;;;;;2.85;2.25;;;9.90;93.60;;;;;;4938172;29;20035;-74
2024/01/04 10:44:34;;;;;;;1.50;1.40;;;10.00;92.90;;;;;;4936131;29;20023;-73
2024/01/04 10:47:05;;;;;;;1.38;1.27;;;10.10;91.10;;;;;;4937294;29;20106;-73
2024/01/04 10:49:31;;;;;;;1.33;0.80;;;10.20;90.70;;;;;;4935803;29;20027;-74
2024/01/04 10:51:58;;;;;;;2.80;0.90;;;10.30;91.00;;;;;;4936079;29;20039;-73
2024/01/04 10:54:34;;;;;;;1.50;1.00;;;10.30;91.00;;;;;;4937224;29;20020;-73
2024/01/04 10:57:01;;;;;;;2.13;0.98;;;10.50;90.40;;;;;;4935909;29;20027;-73
2024/01/04 10:59:28;;;;;;;0.63;0.63;;;10.60;89.00;;;;;;4936719;29;20478;-74
2024/01/04 11:01:55;;;;;;;0.52;0.52;;;10.80;87.50;;;;;;4935633;29;20066;-73
2024/01/04 11:04:21;;;;;;;4.43;2.33;;;10.90;85.90;;;;;;4937180;29;20024;-73
2024/01/04 11:06:49;;;;;;;6.20;3.50;;;11.10;84.80;;;;;;4936387;29;20114;-74
2024/01/04 11:09:17;;;;;;;5.10;1.08;;;11.30;85.20;;;;;;4936468;29;20040;-74
2024/01/04 11:11:44;;;;;;;8.90;4.75;;;11.50;87.10;;;;;;4937006;29;20023;-74
2024/01/04 11:14:10;;;;;;;4.80;1.55;;;11.60;82.60;;;;;;4936866;29;20036;-74
2024/01/04 11:16:45;;;;;;;0.50;0.50;;;11.90;87.60;;;;;;4935561;29;20026;-73
2024/01/04 11:19:49;;;;;;;0.50;0.43;;;12.10;81.10;;;;;;4936635;29;20054;-74
2024/01/04 11:22:48;;;;;;;7.38;3.97;;;12.20;78.30;;;;;;4936786;29;20038;-73
2024/01/04 11:25:47;;;;;;;30.50;12.15;;;12.40;76.10;;;;;;4937153;29;20047;-76
2024/01/04 11:28:13;;;;;;;18.55;8.13;;;12.30;76.20;;;;;;4938392;29;20028;-77
2024/01/04 11:30:39;;;;;;;10.80;5.28;;;12.30;75.50;;;;;;4938813;29;20409;-77
2024/01/04 11:33:05;;;;;;;7.57;3.53;;;12.20;76.50;;;;;;4937354;29;20391;-77
2024/01/04 11:35:38;;;;;;;6.25;3.65;;;12.20;74.50;;;;;;4937482;29;20031;-77
2024/01/04 11:38:07;;;;;;;14.02;5.95;;;12.10;74.60;;;;;;4937566;29;20118;-76
2024/01/04 11:40:37;;;;;;;2.38;1.50;;;12.00;74.60;;;;;;4938587;29;20067;-77
2024/01/04 11:43:13;;;;;;;7.57;3.05;;;12.10;74.50;;;;;;4936036;29;20051;-77
2024/01/04 11:45:42;;;;;;;39.65;16.80;;;12.10;73.40;;;;;;4935286;29;20058;-76
2024/01/04 11:48:12;;;;;;;9.15;3.45;;;12.10;74.60;;;;;;4935076;29;20034;-75
2024/01/04 11:50:49;;;;;;;1.35;0.65;;;12.20;74.20;;;;;;4936466;29;20028;-76
2024/01/04 11:53:17;;;;;;;2.20;1.00;;;12.30;69.80;;;;;;4935147;29;20439;-77
2024/01/04 11:55:42;;;;;;;33.50;14.23;;;12.40;71.20;;;;;;4936233;29;20520;-77
2024/01/04 11:58:13;;;;;;;6.47;4.05;;;12.40;73.20;;;;;;4936272;29;20027;-76
2024/01/04 12:00:50;;;;;;;2.63;1.20;;;12.30;74.50;;;;;;4934797;29;20034;-76
2024/01/04 12:03:17;;;;;;;3.90;2.17;;;12.30;71.60;;;;;;4936067;29;20423;-76
2024/01/04 12:05:49;;;;;;;6.25;3.28;;;12.20;72.10;;;;;;4936192;29;20059;-76
2024/01/04 12:08:25;;;;;;;1.77;0.82;;;12.30;72.90;;;;;;4934755;29;20031;-76
2024/01/04 12:10:54;;;;;;;1.10;1.00;;;12.50;70.80;;;;;;4935747;29;20082;-75
2024/01/04 12:13:20;;;;;;;1.65;0.90;;;12.50;69.60;;;;;;4935881;29;20098;-76
2024/01/04 12:15:46;;;;;;;0.50;0.50;;;12.60;67.90;;;;;;4934567;29;20055;-76
2024/01/04 12:18:12;;;;;;;1.08;0.55;;;12.80;66.00;;;;;;4935817;29;20503;-77
2024/01/04 12:20:38;;;;;;;1.65;0.88;;;12.90;66.30;;;;;;4934511;29;20118;-76
2024/01/04 12:23:06;;;;;;;1.50;0.60;;;12.80;68.70;;;;;;4936564;29;20032;-75
2024/01/04 12:25:36;;;;;;;0.82;0.47;;;12.90;66.20;;;;;;4935576;29;20115;-76
2024/01/04 12:28:05;;;;;;;4.57;2.90;;;12.80;65.80;;;;;;4935472;29;20558;-76
2024/01/04 12:30:30;;;;;;;3.08;0.50;;;12.90;65.50;;;;;;4935496;29;20039;-76
2024/01/04 12:33:00;;;;;;;0.35;0.32;;;12.80;64.90;;;;;;4935776;29;20386;-76
2024/01/04 12:35:26;;;;;;;0.75;0.50;;;12.80;67.20;;;;;;4934355;29;20028;-76
2024/01/04 12:38:03;;;;;;;0.40;0.38;;;12.80;67.60;;;;;;4935545;29;20055;-76
2024/01/04 12:40:45;;;;;;;2.03;0.43;;;12.90;63.20;;;;;;4933455;29;20578;-77
2024/01/04 12:43:15;;;;;;;0.30;0.30;;;12.90;64.50;;;;;;4935346;29;20402;-77
2024/01/04 12:45:40;;;;;;;1.05;0.50;;;12.90;61.80;;;;;;4935509;29;20059;-76
2024/01/04 12:48:07;;;;;;;0.70;0.60;;;13.00;60.60;;;;;;4934012;29;20040;-77
2024/01/04 12:50:37;;;;;;;0.80;0.38;;;13.10;60.90;;;;;;4933747;29;20031;-77